createdAt,value
2022-07-27T00:00:57.337Z,13.20
2022-07-27T00:03:24.545Z,13.20
2022-07-27T00:05:51.597Z,13.10
2022-07-27T00:08:20.725Z,13.00
2022-07-27T00:10:47.958Z,13.00
2022-07-27T00:13:14.982Z,13.00
2022-07-27T00:15:42.475Z,12.90
2022-07-27T00:18:10.053Z,12.90
2022-07-27T00:20:37.562Z,12.90
2022-07-27T00:23:04.492Z,12.80
2022-07-27T00:25:31.481Z,12.80
2022-07-27T00:27:58.546Z,12.70
2022-07-27T00:30:26.701Z,12.70
2022-07-27T00:32:53.941Z,12.70
2022-07-27T00:35:21.103Z,12.60
2022-07-27T00:37:48.116Z,12.60
2022-07-27T00:40:15.522Z,12.60
2022-07-27T00:42:42.611Z,12.60
2022-07-27T00:45:10.247Z,12.60
2022-07-27T00:47:37.225Z,12.60
2022-07-27T00:50:05.151Z,12.60
2022-07-27T00:52:32.580Z,12.60
2022-07-27T00:55:00.272Z,12.50
2022-07-27T00:57:28.494Z,12.50
2022-07-27T00:59:55.573Z,12.50
2022-07-27T01:02:23.081Z,12.50
2022-07-27T01:04:53.504Z,12.50
2022-07-27T01:07:25.793Z,12.50
2022-07-27T01:09:59.072Z,12.50
2022-07-27T01:12:29.433Z,12.50
2022-07-27T01:14:58.181Z,12.50
2022-07-27T01:17:26.539Z,12.40
2022-07-27T01:19:53.677Z,12.50
2022-07-27T01:22:20.723Z,12.50
2022-07-27T01:24:49.629Z,12.40
2022-07-27T01:27:17.131Z,12.40
2022-07-27T01:29:44.346Z,12.40
2022-07-27T01:32:11.534Z,12.40
2022-07-27T01:34:38.768Z,12.40
2022-07-27T01:37:06.022Z,12.50
2022-07-27T01:39:33.802Z,12.50
2022-07-27T01:42:01.495Z,12.50
2022-07-27T01:44:28.892Z,12.50
2022-07-27T01:46:55.882Z,12.50
2022-07-27T01:49:23.054Z,12.50
2022-07-27T01:51:50.229Z,12.50
2022-07-27T01:54:18.358Z,12.50
2022-07-27T01:56:45.440Z,12.50
2022-07-27T01:59:16.229Z,12.50
2022-07-27T02:01:44.735Z,12.60
2022-07-27T02:04:12.231Z,12.60
2022-07-27T02:06:39.661Z,12.70
2022-07-27T02:09:06.803Z,12.60
2022-07-27T02:11:52.350Z,12.70
2022-07-27T02:14:21.411Z,12.70
2022-07-27T02:16:50.083Z,12.70
2022-07-27T02:19:18.550Z,12.70
2022-07-27T02:21:46.086Z,12.70
2022-07-27T02:24:13.156Z,12.70
2022-07-27T02:26:40.066Z,12.70
2022-07-27T02:29:07.025Z,12.70
2022-07-27T02:31:34.021Z,12.70
2022-07-27T02:34:01.040Z,12.60
2022-07-27T02:36:30.912Z,12.70
2022-07-27T02:38:58.611Z,12.70
2022-07-27T02:41:25.841Z,12.70
2022-07-27T02:43:52.817Z,12.70
2022-07-27T02:46:19.851Z,12.70
2022-07-27T02:48:47.115Z,12.70
2022-07-27T02:51:15.292Z,12.70
2022-07-27T02:53:42.490Z,12.70
2022-07-27T02:56:09.743Z,12.70
2022-07-27T02:58:37.626Z,12.70
2022-07-27T03:01:05.845Z,12.70
2022-07-27T03:03:37.021Z,12.60
2022-07-27T03:06:07.937Z,12.60
2022-07-27T03:08:35.874Z,12.60
2022-07-27T03:11:02.829Z,12.60
2022-07-27T03:13:29.959Z,12.60
2022-07-27T03:15:57.592Z,12.60
2022-07-27T03:18:24.763Z,12.60
2022-07-27T03:20:51.662Z,12.60
2022-07-27T03:23:19.039Z,12.60
2022-07-27T03:25:45.968Z,12.60
2022-07-27T03:28:12.912Z,12.60
2022-07-27T03:30:39.903Z,12.60
2022-07-27T03:33:07.661Z,12.50
2022-07-27T03:35:34.636Z,12.50
2022-07-27T03:38:01.599Z,12.50
2022-07-27T03:40:32.999Z,12.50
2022-07-27T03:43:00.540Z,12.40
2022-07-27T03:45:27.706Z,12.40
2022-07-27T03:47:54.747Z,12.40
2022-07-27T03:50:22.673Z,12.40
2022-07-27T03:52:49.957Z,12.40
2022-07-27T03:55:17.417Z,12.30
2022-07-27T03:57:44.307Z,12.30
2022-07-27T04:00:13.623Z,12.30
2022-07-27T04:02:41.893Z,12.30
2022-07-27T04:05:10.123Z,12.30
2022-07-27T04:07:37.948Z,12.30
2022-07-27T04:10:06.580Z,12.30
2022-07-27T04:12:39.731Z,12.30
2022-07-27T04:15:08.860Z,12.30
2022-07-27T04:17:54.311Z,12.30
2022-07-27T04:20:22.689Z,12.30
2022-07-27T04:22:49.645Z,12.30
2022-07-27T04:25:17.400Z,12.20
2022-07-27T04:27:44.738Z,12.20
2022-07-27T04:30:12.138Z,12.20
2022-07-27T04:32:39.144Z,12.20
2022-07-27T04:35:08.142Z,12.20
2022-07-27T04:37:36.475Z,12.20
2022-07-27T04:40:04.247Z,12.20
2022-07-27T04:42:31.254Z,12.20
2022-07-27T04:44:59.682Z,12.30
2022-07-27T04:47:27.322Z,12.30
2022-07-27T04:49:54.277Z,12.30
2022-07-27T04:52:26.449Z,12.40
2022-07-27T04:54:54.888Z,12.40
2022-07-27T04:57:23.302Z,12.40
2022-07-27T04:59:50.489Z,12.40
2022-07-27T05:02:17.511Z,12.40
2022-07-27T05:04:44.464Z,12.40
2022-07-27T05:07:11.423Z,12.40
2022-07-27T05:09:38.519Z,12.40
2022-07-27T05:12:05.621Z,12.40
2022-07-27T05:14:32.617Z,12.50
2022-07-27T05:16:59.636Z,12.50
2022-07-27T05:19:40.612Z,12.50
2022-07-27T05:22:08.642Z,12.60
2022-07-27T05:24:35.694Z,12.60
2022-07-27T05:27:02.937Z,12.60
2022-07-27T05:29:29.902Z,12.70
2022-07-27T05:31:57.025Z,12.70
2022-07-27T05:34:24.213Z,12.70
2022-07-27T05:36:51.258Z,12.80
2022-07-27T05:39:18.559Z,12.80
2022-07-27T05:41:45.765Z,12.80
2022-07-27T05:44:12.721Z,12.80
2022-07-27T05:46:39.974Z,12.90
2022-07-27T05:49:06.991Z,13.00
2022-07-27T05:51:34.132Z,13.00
2022-07-27T05:54:01.177Z,13.00
2022-07-27T05:56:28.104Z,13.00
2022-07-27T05:58:55.130Z,13.00
2022-07-27T06:01:22.977Z,13.00
2022-07-27T06:03:50.063Z,13.00
2022-07-27T06:06:35.483Z,13.10
2022-07-27T06:09:04.162Z,13.10
2022-07-27T06:11:31.156Z,13.20
2022-07-27T06:13:58.264Z,13.20
2022-07-27T06:16:25.420Z,13.30
2022-07-27T06:18:52.531Z,13.30
2022-07-27T06:21:20.050Z,13.40
2022-07-27T06:23:48.513Z,13.40
2022-07-27T06:26:15.698Z,13.40
2022-07-27T06:28:42.732Z,13.50
2022-07-27T06:31:09.925Z,13.50
2022-07-27T06:33:38.034Z,13.60
2022-07-27T06:36:05.967Z,13.60
2022-07-27T06:38:32.939Z,13.70
2022-07-27T06:41:00.110Z,13.80
2022-07-27T06:43:30.607Z,13.90
2022-07-27T06:46:00.950Z,13.90
2022-07-27T06:48:27.996Z,14.00
2022-07-27T06:50:55.521Z,14.00
2022-07-27T06:53:22.773Z,14.00
2022-07-27T06:55:53.689Z,14.10
2022-07-27T06:58:22.737Z,14.20
2022-07-27T07:00:49.734Z,14.20
2022-07-27T07:03:16.791Z,14.20
2022-07-27T07:05:45.996Z,14.30
2022-07-27T07:08:13.730Z,14.30
2022-07-27T07:10:42.384Z,14.30
2022-07-27T07:13:10.076Z,14.20
2022-07-27T07:18:06.795Z,14.30
2022-07-27T07:20:34.719Z,14.50
2022-07-27T07:23:01.933Z,14.50
2022-07-27T07:25:29.560Z,14.50
2022-07-27T07:27:57.008Z,14.60
2022-07-27T07:30:24.454Z,14.60
2022-07-27T07:32:52.061Z,14.60
2022-07-27T07:35:19.210Z,14.80
2022-07-27T07:37:50.264Z,14.70
2022-07-27T07:40:42.812Z,14.70
2022-07-27T07:43:05.994Z,14.70
2022-07-27T07:45:38.210Z,14.80
2022-07-27T07:48:16.486Z,14.80
2022-07-27T07:50:43.451Z,14.80
2022-07-27T07:53:10.505Z,14.90
2022-07-27T07:55:41.686Z,15.00
2022-07-27T07:58:08.912Z,14.90
2022-07-27T08:00:36.045Z,15.00
2022-07-27T08:03:03.183Z,15.00
2022-07-27T08:05:32.626Z,15.00
2022-07-27T08:07:59.886Z,15.00
2022-07-27T08:10:28.182Z,15.10
2022-07-27T08:12:56.642Z,15.10
2022-07-27T08:15:34.581Z,15.10
2022-07-27T08:18:02.920Z,15.30
2022-07-27T08:20:29.939Z,15.40
2022-07-27T08:22:56.928Z,15.40
2022-07-27T08:25:23.885Z,15.40
2022-07-27T08:27:51.622Z,15.30
2022-07-27T08:30:18.642Z,15.40
2022-07-27T08:33:01.409Z,15.30
2022-07-27T08:35:29.657Z,15.50
2022-07-27T08:37:56.617Z,15.60
2022-07-27T08:43:13.134Z,15.40
2022-07-27T08:45:41.996Z,15.50
2022-07-27T08:48:13.755Z,15.60
2022-07-27T08:50:42.630Z,15.80
2022-07-27T08:53:12.551Z,15.90
2022-07-27T08:55:41.833Z,16.10
2022-07-27T08:58:09.808Z,16.00
2022-07-27T09:00:39.790Z,16.10
2022-07-27T09:03:07.231Z,16.10
2022-07-27T09:05:41.146Z,16.00
2022-07-27T09:08:25.203Z,16.10
2022-07-27T09:10:56.823Z,16.00
2022-07-27T09:13:27.969Z,15.80
2022-07-27T09:18:46.193Z,16.10
2022-07-27T09:21:21.854Z,16.10
2022-07-27T09:23:52.171Z,16.20
2022-07-27T09:26:33.292Z,16.20
2022-07-27T09:29:12.076Z,16.30
2022-07-27T09:31:46.142Z,16.20
2022-07-27T09:34:26.226Z,16.20
2022-07-27T09:36:55.273Z,16.40
2022-07-27T09:39:24.181Z,16.40
2022-07-27T09:42:02.774Z,16.40
2022-07-27T09:44:43.384Z,16.60
2022-07-27T09:47:29.636Z,16.70
2022-07-27T09:50:35.246Z,16.80
2022-07-27T09:53:41.228Z,16.90
2022-07-27T09:56:10.217Z,16.60
2022-07-27T09:58:56.768Z,16.40
2022-07-27T10:01:28.065Z,16.30
2022-07-27T10:03:57.759Z,16.20
2022-07-27T10:06:26.012Z,16.00
2022-07-27T10:08:54.910Z,16.00
2022-07-27T10:11:23.616Z,16.10
2022-07-27T10:13:52.223Z,16.00
2022-07-27T10:16:28.940Z,15.90
2022-07-27T10:19:18.930Z,16.00
2022-07-27T10:21:47.934Z,16.00
2022-07-27T10:24:31.701Z,15.80
2022-07-27T10:26:58.785Z,15.80
2022-07-27T10:29:26.616Z,15.80
2022-07-27T10:32:01.061Z,15.80
2022-07-27T10:34:43.672Z,16.00
2022-07-27T10:37:18.033Z,16.00
2022-07-27T10:39:52.199Z,16.00
2022-07-27T10:42:24.324Z,16.00
2022-07-27T10:45:01.478Z,16.00
2022-07-27T10:47:31.127Z,15.90
2022-07-27T10:50:16.519Z,16.00
2022-07-27T10:52:59.806Z,16.20
2022-07-27T10:55:32.788Z,16.30
2022-07-27T11:00:55.687Z,16.50
2022-07-27T11:03:53.402Z,16.70
2022-07-27T11:06:33.212Z,17.00
2022-07-27T11:09:53.244Z,16.90
2022-07-27T11:11:53.670Z,16.60
2022-07-27T11:14:30.778Z,16.40
2022-07-27T11:19:59.076Z,16.30
2022-07-27T11:25:23.554Z,17.00
2022-07-27T11:27:51.583Z,17.20
2022-07-27T11:30:26.278Z,17.50
2022-07-27T11:32:56.776Z,17.50
2022-07-27T11:35:25.203Z,17.50
2022-07-27T11:38:19.514Z,17.60
2022-07-27T11:41:07.230Z,17.50
2022-07-27T11:43:45.210Z,17.70
2022-07-27T11:46:20.897Z,18.00
2022-07-27T11:49:08.025Z,18.10
2022-07-27T11:51:41.682Z,18.20
2022-07-27T11:54:14.321Z,18.50
2022-07-27T11:56:44.924Z,18.50
2022-07-27T11:59:18.087Z,18.90
2022-07-27T12:01:54.434Z,18.80
2022-07-27T12:04:29.507Z,19.40
2022-07-27T12:07:04.998Z,19.40
2022-07-27T12:09:38.456Z,19.30
2022-07-27T12:12:20.021Z,19.00
2022-07-27T12:15:28.449Z,18.90
2022-07-27T12:17:58.711Z,18.50
2022-07-27T12:20:33.530Z,19.10
2022-07-27T12:23:08.721Z,19.30
2022-07-27T12:25:36.666Z,19.70
2022-07-27T12:28:05.034Z,20.00
2022-07-27T12:30:37.782Z,19.10
2022-07-27T12:33:25.001Z,19.30
2022-07-27T12:35:52.453Z,19.40
2022-07-27T12:38:19.662Z,19.60
2022-07-27T12:41:00.544Z,20.00
2022-07-27T12:43:28.419Z,20.00
2022-07-27T12:45:56.269Z,20.00
2022-07-27T12:48:26.337Z,19.80
2022-07-27T12:51:05.028Z,19.90
2022-07-27T12:53:33.042Z,19.70
2022-07-27T12:56:06.659Z,20.40
2022-07-27T12:58:33.927Z,20.80
2022-07-27T13:03:28.614Z,22.40
2022-07-27T13:05:55.610Z,22.90
2022-07-27T13:08:23.469Z,22.90
2022-07-27T13:10:52.474Z,22.90
2022-07-27T13:13:24.719Z,22.60
2022-07-27T13:15:52.146Z,22.50
2022-07-27T13:18:23.439Z,21.80
2022-07-27T13:20:51.724Z,21.70
2022-07-27T13:23:18.738Z,21.50
2022-07-27T13:25:45.901Z,21.70
2022-07-27T13:28:13.230Z,21.50
2022-07-27T13:30:40.548Z,20.60
2022-07-27T13:33:07.931Z,20.20
2022-07-27T13:35:34.925Z,20.00
2022-07-27T13:38:02.010Z,19.60
2022-07-27T13:40:29.034Z,19.40
2022-07-27T13:42:56.286Z,18.90
2022-07-27T13:45:23.437Z,18.90
2022-07-27T13:47:50.415Z,18.90
2022-07-27T13:50:19.384Z,18.60
2022-07-27T13:52:48.545Z,18.70
2022-07-27T13:55:17.229Z,18.80
2022-07-27T13:57:44.895Z,18.80
2022-07-27T14:00:13.113Z,18.60
2022-07-27T14:02:40.958Z,18.40
2022-07-27T14:05:09.868Z,18.20
2022-07-27T14:07:40.375Z,18.20
2022-07-27T14:10:26.319Z,18.20
2022-07-27T14:12:58.859Z,18.30
2022-07-27T14:15:26.680Z,18.20
2022-07-27T14:17:53.782Z,17.90
2022-07-27T14:20:20.749Z,17.90
2022-07-27T14:22:47.688Z,18.10
2022-07-27T14:25:14.949Z,18.10
2022-07-27T14:27:42.121Z,18.10
2022-07-27T14:30:09.634Z,18.00
2022-07-27T14:32:37.046Z,17.90
2022-07-27T14:35:05.215Z,18.00
2022-07-27T14:37:34.355Z,18.30
2022-07-27T14:40:02.625Z,18.20
2022-07-27T14:42:29.627Z,18.30
2022-07-27T14:44:56.771Z,18.10
2022-07-27T14:47:24.256Z,18.30
2022-07-27T14:49:51.338Z,18.60
2022-07-27T14:52:18.836Z,18.80
2022-07-27T14:54:47.639Z,19.00
2022-07-27T14:57:15.616Z,19.00
2022-07-27T14:59:43.627Z,18.90
2022-07-27T15:02:11.054Z,19.00
2022-07-27T15:04:38.124Z,19.00
2022-07-27T15:07:05.111Z,18.70
2022-07-27T15:09:32.141Z,18.60
2022-07-27T15:12:00.358Z,18.80
2022-07-27T15:14:27.850Z,18.70
2022-07-27T15:16:55.922Z,18.70
2022-07-27T15:19:23.237Z,18.50
2022-07-27T15:21:50.614Z,18.60
2022-07-27T15:24:17.578Z,18.50
2022-07-27T15:26:44.471Z,18.50
2022-07-27T15:29:14.736Z,18.60
2022-07-27T15:31:42.846Z,18.60
2022-07-27T15:34:10.013Z,18.30
2022-07-27T15:36:43.641Z,18.20
2022-07-27T15:39:13.991Z,18.40
2022-07-27T15:41:41.151Z,18.20
2022-07-27T15:44:08.316Z,18.20
2022-07-27T15:46:35.389Z,18.30
2022-07-27T15:49:02.534Z,18.20
2022-07-27T15:51:29.744Z,18.30
2022-07-27T15:53:57.293Z,18.30
2022-07-27T15:56:25.183Z,18.30
2022-07-27T15:58:52.416Z,18.30
2022-07-27T16:01:20.817Z,18.10
2022-07-27T16:03:49.161Z,17.90
2022-07-27T16:06:16.892Z,18.10
2022-07-27T16:08:47.498Z,18.20
2022-07-27T16:11:14.738Z,18.20
2022-07-27T16:13:42.098Z,17.90
2022-07-27T16:16:27.541Z,17.50
2022-07-27T16:18:56.874Z,17.40
2022-07-27T16:21:25.029Z,17.20
2022-07-27T16:23:53.863Z,17.10
2022-07-27T16:26:21.508Z,16.90
2022-07-27T16:28:50.661Z,17.00
2022-07-27T16:31:20.985Z,17.00
2022-07-27T16:33:49.700Z,17.00
2022-07-27T16:36:22.168Z,16.90
2022-07-27T16:38:51.910Z,17.00
2022-07-27T16:41:22.920Z,17.10
2022-07-27T16:43:50.009Z,17.30
2022-07-27T16:46:17.839Z,17.40
2022-07-27T16:48:45.410Z,17.30
2022-07-27T16:51:14.067Z,17.50
2022-07-27T16:53:44.207Z,17.40
2022-07-27T16:56:11.649Z,17.30
2022-07-27T16:58:39.549Z,17.20
2022-07-27T17:01:07.673Z,17.10
2022-07-27T17:03:34.620Z,16.90
2022-07-27T17:06:05.933Z,16.80
2022-07-27T17:08:34.089Z,16.70
2022-07-27T17:11:02.602Z,16.70
2022-07-27T17:13:33.390Z,16.90
2022-07-27T17:16:02.062Z,16.80
2022-07-27T17:18:29.038Z,16.90
2022-07-27T17:20:56.065Z,16.90
2022-07-27T17:23:23.026Z,16.90
2022-07-27T17:25:49.993Z,16.70
2022-07-27T17:28:17.487Z,16.60
2022-07-27T17:30:44.466Z,16.70
2022-07-27T17:33:11.817Z,16.70
2022-07-27T17:35:38.819Z,16.70
2022-07-27T17:38:07.087Z,16.70
2022-07-27T17:40:35.626Z,16.60
2022-07-27T17:43:03.111Z,16.70
2022-07-27T17:45:30.248Z,16.70
2022-07-27T17:47:57.379Z,16.90
2022-07-27T17:50:24.319Z,16.90
2022-07-27T17:52:51.367Z,17.00
2022-07-27T17:55:18.294Z,17.10
2022-07-27T17:57:45.417Z,17.20
2022-07-27T18:00:13.170Z,17.30
2022-07-27T18:02:40.167Z,17.20
2022-07-27T18:05:07.589Z,17.00
2022-07-27T18:07:38.962Z,17.10
2022-07-27T18:10:08.606Z,17.00
2022-07-27T18:12:35.912Z,16.90
2022-07-27T18:15:21.675Z,16.80
2022-07-27T18:17:48.642Z,16.80
2022-07-27T18:20:15.991Z,16.50
2022-07-27T18:22:43.112Z,16.50
2022-07-27T18:25:10.586Z,16.50
2022-07-27T18:27:37.930Z,16.40
2022-07-27T18:30:06.072Z,16.30
2022-07-27T18:32:33.762Z,16.30
2022-07-27T18:35:05.472Z,16.10
2022-07-27T18:37:32.390Z,16.00
2022-07-27T18:39:59.340Z,15.80
2022-07-27T18:42:26.319Z,15.80
2022-07-27T18:44:53.616Z,15.70
2022-07-27T18:47:20.556Z,15.60
2022-07-27T18:49:47.582Z,15.60
2022-07-27T18:52:15.433Z,15.50
2022-07-27T18:54:42.356Z,15.50
2022-07-27T18:57:10.262Z,15.50
2022-07-27T18:59:40.803Z,15.50
2022-07-27T19:02:08.631Z,15.50
2022-07-27T19:04:35.755Z,15.50
2022-07-27T19:07:03.729Z,15.40
2022-07-27T19:09:34.010Z,15.50
2022-07-27T19:12:07.408Z,15.50
2022-07-27T19:14:37.158Z,15.40
2022-07-27T19:17:04.413Z,15.50
2022-07-27T19:19:31.795Z,15.40
2022-07-27T19:21:59.336Z,15.40
2022-07-27T19:24:26.611Z,15.40
2022-07-27T19:26:53.802Z,15.40
2022-07-27T19:29:22.758Z,15.30
2022-07-27T19:31:49.823Z,15.30
2022-07-27T19:34:17.419Z,15.30
2022-07-27T19:36:45.050Z,15.30
2022-07-27T19:39:12.625Z,15.20
2022-07-27T19:41:40.252Z,15.20
2022-07-27T19:44:07.475Z,15.30
2022-07-27T19:46:34.823Z,15.20
2022-07-27T19:49:01.967Z,15.20
2022-07-27T19:51:29.199Z,15.20
2022-07-27T19:53:56.165Z,15.20
2022-07-27T19:56:32.752Z,15.20
2022-07-27T19:59:02.378Z,15.10
2022-07-27T20:01:31.819Z,15.00
2022-07-27T20:03:59.003Z,15.00
2022-07-27T20:06:26.342Z,15.00
2022-07-27T20:08:59.907Z,15.00
2022-07-27T20:11:31.110Z,15.00
2022-07-27T20:13:59.490Z,14.90
2022-07-27T20:16:30.419Z,15.00
2022-07-27T20:18:59.943Z,15.00
2022-07-27T20:21:27.312Z,15.00
2022-07-27T20:23:54.646Z,15.00
2022-07-27T20:26:21.662Z,15.00
2022-07-27T20:28:50.247Z,15.00
2022-07-27T20:31:17.691Z,15.00
2022-07-27T20:33:44.947Z,15.00
2022-07-27T20:36:11.908Z,14.90
2022-07-27T20:38:38.966Z,14.90
2022-07-27T20:41:06.019Z,14.90
2022-07-27T20:43:33.037Z,14.90
2022-07-27T20:46:00.571Z,14.90
2022-07-27T20:48:27.668Z,14.90
2022-07-27T20:50:54.663Z,14.90
2022-07-27T20:53:21.700Z,14.90
2022-07-27T20:55:48.811Z,14.90
2022-07-27T20:58:15.837Z,14.80
2022-07-27T21:00:43.195Z,14.80
2022-07-27T21:03:10.329Z,14.80
2022-07-27T21:05:37.309Z,14.80
2022-07-27T21:08:04.429Z,14.80
2022-07-27T21:10:31.422Z,14.70
2022-07-27T21:12:58.650Z,14.60
2022-07-27T21:15:34.053Z,14.60
2022-07-27T21:18:02.728Z,14.60
2022-07-27T21:20:30.437Z,14.50
2022-07-27T21:23:15.994Z,14.40
2022-07-27T21:25:44.075Z,14.40
2022-07-27T21:28:16.674Z,14.40
2022-07-27T21:30:45.619Z,14.30
2022-07-27T21:33:12.630Z,14.30
2022-07-27T21:35:39.682Z,14.20
2022-07-27T21:38:06.607Z,14.20
2022-07-27T21:40:33.982Z,14.20
2022-07-27T21:43:01.193Z,14.10
2022-07-27T21:45:28.283Z,14.10
2022-07-27T21:47:55.386Z,14.00
2022-07-27T21:50:22.607Z,14.00
2022-07-27T21:52:50.099Z,13.90
2022-07-27T21:55:22.575Z,13.80
2022-07-27T21:57:50.475Z,13.80
2022-07-27T22:00:24.055Z,13.80
2022-07-27T22:02:52.523Z,13.70
2022-07-27T22:05:19.583Z,13.60
2022-07-27T22:07:46.505Z,13.50
2022-07-27T22:10:13.446Z,13.50
2022-07-27T22:12:40.470Z,13.50
2022-07-27T22:15:08.093Z,13.50
2022-07-27T22:17:35.156Z,13.40
2022-07-27T22:20:13.159Z,13.40
2022-07-27T22:22:40.139Z,13.30
2022-07-27T22:25:07.325Z,13.30
2022-07-27T22:27:34.514Z,13.20
2022-07-27T22:30:01.460Z,13.20
2022-07-27T22:32:29.116Z,13.20
2022-07-27T22:34:56.230Z,13.10
2022-07-27T22:37:23.203Z,13.10
2022-07-27T22:39:50.161Z,13.00
2022-07-27T22:42:17.222Z,13.00
2022-07-27T22:44:44.184Z,13.00
2022-07-27T22:47:12.013Z,13.00
2022-07-27T22:49:39.016Z,12.90
2022-07-27T22:52:06.600Z,12.90
2022-07-27T22:54:38.219Z,12.90
2022-07-27T22:57:06.733Z,12.80
2022-07-27T22:59:34.557Z,12.80
2022-07-27T23:02:02.119Z,12.80
2022-07-27T23:04:29.235Z,12.70
2022-07-27T23:06:56.957Z,12.70
2022-07-27T23:09:24.020Z,12.60
2022-07-27T23:11:51.731Z,12.60
2022-07-27T23:14:19.151Z,12.50
2022-07-27T23:16:46.438Z,12.50
2022-07-27T23:19:13.476Z,12.50
2022-07-27T23:21:42.090Z,12.50
2022-07-27T23:24:10.359Z,12.40
2022-07-27T23:26:38.354Z,12.40
2022-07-27T23:29:05.451Z,12.30
2022-07-27T23:31:32.520Z,12.30
2022-07-27T23:33:59.762Z,12.30
2022-07-27T23:36:26.794Z,12.30
2022-07-27T23:38:53.859Z,12.20
2022-07-27T23:41:21.033Z,12.20
2022-07-27T23:43:48.026Z,12.30
2022-07-27T23:46:15.108Z,12.30
2022-07-27T23:48:42.276Z,12.30
2022-07-27T23:51:09.297Z,12.30
2022-07-27T23:53:36.930Z,12.20
2022-07-27T23:56:04.027Z,12.20
2022-07-27T23:58:31.050Z,12.20
